Saint-Fabien, Canada
Current Conditions -  °F | °C
As of 9:00 AM on Monday 24 Nov 2014 (Local Time) from CYYY Reporting Station
Light Rain Light Rain  
Wind Chill: 32°   Ceiling: 4500
Heat Index: 41°   Visibility: 15mi
Dew Point: 36°   Wind: 18mph
Humidity: 81%   Direction: 160°SSE
Pressure: 29.83"   Gusts: 32mph
Location:  48.28°N, 68.87°W
Report Text: CYYY 241400Z 16016G28KT 15SM -RA FEW020 OVC045 05/02 A2983 RMK SC1SC7 SLP104
Loading
Personal Weather Stations






























Interactive Weather Map New forecast layout! Learn more

10-Day Weather Forecast

Advertisements
Track Severe Weather on mobile